createdAt,value
2022-09-07T00:01:00.750Z,17.19
2022-09-07T00:03:27.865Z,17.19
2022-09-07T00:05:54.617Z,17.12
2022-09-07T00:08:23.308Z,17.27
2022-09-07T00:10:59.503Z,17.27
2022-09-07T00:13:28.601Z,17.31
2022-09-07T00:15:55.618Z,17.37
2022-09-07T00:18:22.262Z,17.39
2022-09-07T00:21:01.041Z,17.48
2022-09-07T00:23:30.019Z,17.54
2022-09-07T00:26:06.185Z,17.64
2022-09-07T00:28:33.144Z,17.67
2022-09-07T00:30:59.949Z,17.67
2022-09-07T00:33:27.012Z,17.72
2022-09-07T00:35:54.192Z,17.58
2022-09-07T00:38:20.867Z,17.56
2022-09-07T00:40:47.469Z,17.55
2022-09-07T00:43:18.258Z,17.53
2022-09-07T00:45:44.818Z,17.47
2022-09-07T00:48:17.118Z,17.47
2022-09-07T00:50:48.488Z,17.47
2022-09-07T00:53:21.336Z,17.47
2022-09-07T00:55:51.146Z,17.45
2022-09-07T00:58:19.947Z,17.40
2022-09-07T01:00:48.778Z,17.38
2022-09-07T01:03:19.081Z,17.40
2022-09-07T01:05:48.466Z,17.36
2022-09-07T01:08:15.362Z,17.39
2022-09-07T01:10:41.976Z,17.40
2022-09-07T01:13:08.611Z,17.50
2022-09-07T01:16:14.233Z,17.59
2022-09-07T01:19:00.205Z,17.55
2022-09-07T01:21:53.057Z,17.60
2022-09-07T01:24:41.818Z,17.68
2022-09-07T01:27:20.750Z,17.72
2022-09-07T01:30:06.323Z,17.77
2022-09-07T01:32:54.402Z,17.85
2022-09-07T01:35:31.781Z,17.92
2022-09-07T01:38:29.288Z,17.88
2022-09-07T01:41:03.272Z,17.87
2022-09-07T01:43:51.581Z,17.87
2022-09-07T01:46:42.616Z,17.93
2022-09-07T01:49:14.437Z,18.01
2022-09-07T01:51:47.303Z,18.04
2022-09-07T01:54:32.104Z,17.99
2022-09-07T01:57:04.397Z,18.01
2022-09-07T01:59:44.617Z,18.05
2022-09-07T02:02:16.798Z,18.09
2022-09-07T02:04:55.519Z,18.15
2022-09-07T02:07:28.448Z,18.12
2022-09-07T02:10:02.566Z,18.08
2022-09-07T02:12:40.686Z,18.07
2022-09-07T02:15:16.556Z,18.11
2022-09-07T02:17:49.060Z,18.04
2022-09-07T02:20:22.017Z,18.01
2022-09-07T02:22:55.087Z,18.01
2022-09-07T02:25:26.737Z,17.99
2022-09-07T02:28:00.165Z,17.92
2022-09-07T02:30:26.698Z,18.03
2022-09-07T02:32:54.097Z,18.05
2022-09-07T02:35:20.910Z,18.10
2022-09-07T02:37:48.867Z,18.06
2022-09-07T02:40:15.354Z,18.07
2022-09-07T02:42:43.335Z,18.07
2022-09-07T02:45:12.644Z,18.04
2022-09-07T02:48:14.320Z,17.95
2022-09-07T02:50:56.372Z,17.84
2022-09-07T02:53:52.640Z,17.88
2022-09-07T02:56:37.877Z,17.79
2022-09-07T02:59:22.897Z,17.76
2022-09-07T03:02:25.115Z,17.78
2022-09-07T03:05:11.505Z,17.70
2022-09-07T03:07:51.413Z,17.64
2022-09-07T03:10:19.025Z,17.64
2022-09-07T03:12:48.493Z,17.57
2022-09-07T03:15:18.925Z,17.51
2022-09-07T03:17:45.448Z,17.49
2022-09-07T03:20:12.697Z,17.48
2022-09-07T03:22:39.583Z,17.44
2022-09-07T03:25:06.892Z,17.40
2022-09-07T03:27:33.689Z,17.36
2022-09-07T03:30:00.375Z,17.39
2022-09-07T03:32:32.770Z,17.38
2022-09-07T03:35:00.065Z,17.39
2022-09-07T03:37:26.840Z,17.44
2022-09-07T03:39:53.472Z,17.46
2022-09-07T03:42:20.642Z,17.45
2022-09-07T03:44:49.422Z,17.41
2022-09-07T03:47:17.189Z,17.37
2022-09-07T03:49:44.142Z,17.36
2022-09-07T03:52:10.668Z,17.39
2022-09-07T03:54:39.576Z,17.44
2022-09-07T03:57:06.814Z,17.46
2022-09-07T03:59:33.343Z,17.34
2022-09-07T04:02:00.156Z,17.29
2022-09-07T04:04:27.392Z,17.12
2022-09-07T04:06:54.071Z,17.07
2022-09-07T04:09:20.608Z,17.17
2022-09-07T04:11:47.187Z,17.09
2022-09-07T04:14:13.780Z,17.11
2022-09-07T04:16:40.703Z,17.07
2022-09-07T04:19:07.247Z,17.08
2022-09-07T04:21:34.509Z,17.07
2022-09-07T04:24:01.389Z,17.04
2022-09-07T04:26:33.285Z,17.06
2022-09-07T04:29:03.412Z,17.06
2022-09-07T04:31:30.947Z,17.04
2022-09-07T04:33:57.432Z,17.03
2022-09-07T04:36:24.941Z,16.93
2022-09-07T04:38:59.746Z,16.92
2022-09-07T04:41:27.790Z,16.94
2022-09-07T04:43:56.689Z,16.91
2022-09-07T04:46:26.234Z,16.87
2022-09-07T04:48:58.194Z,16.85
2022-09-07T04:51:27.041Z,16.80
2022-09-07T04:53:55.345Z,16.78
2022-09-07T04:56:22.804Z,16.79
2022-09-07T04:58:49.916Z,16.82
2022-09-07T05:01:19.465Z,16.77
2022-09-07T05:03:47.109Z,16.72
2022-09-07T05:06:14.515Z,16.76
2022-09-07T05:08:47.550Z,16.74
2022-09-07T05:11:15.242Z,16.80
2022-09-07T05:13:42.322Z,16.86
2022-09-07T05:16:20.472Z,16.93
2022-09-07T05:18:51.417Z,16.98
2022-09-07T05:21:23.505Z,17.04
2022-09-07T05:23:51.666Z,17.08
2022-09-07T05:26:20.109Z,17.07
2022-09-07T05:28:47.096Z,17.06
2022-09-07T05:31:20.481Z,17.12
2022-09-07T05:36:37.045Z,17.22
2022-09-07T05:39:05.045Z,17.29
2022-09-07T05:41:31.882Z,17.33
2022-09-07T05:46:45.138Z,17.47
2022-09-07T05:49:11.740Z,17.49
2022-09-07T05:51:38.848Z,17.58
2022-09-07T05:54:05.588Z,17.68
2022-09-07T05:56:35.946Z,17.78
2022-09-07T05:59:02.619Z,18.15
2022-09-07T06:01:29.179Z,18.32
2022-09-07T06:03:55.757Z,18.42
2022-09-07T06:06:22.333Z,18.49
2022-09-07T06:08:51.202Z,18.56
2022-09-07T06:11:20.522Z,18.55
2022-09-07T06:13:47.161Z,18.62
2022-09-07T06:16:15.713Z,18.72
2022-09-07T06:18:44.435Z,18.81
2022-09-07T06:21:13.725Z,18.74
2022-09-07T06:23:41.907Z,19.01
2022-09-07T06:26:09.396Z,19.14
2022-09-07T06:28:38.681Z,19.06
2022-09-07T06:31:10.780Z,19.04
2022-09-07T06:33:37.599Z,19.15
2022-09-07T06:36:06.925Z,18.98
2022-09-07T06:38:39.475Z,18.99
2022-09-07T06:43:57.812Z,19.40
2022-09-07T06:49:12.379Z,19.21
2022-09-07T06:51:38.963Z,19.24
2022-09-07T06:56:52.092Z,19.25
2022-09-07T06:59:18.691Z,19.19
2022-09-07T07:01:45.244Z,19.22
2022-09-07T07:04:11.868Z,19.19
2022-09-07T07:06:39.212Z,19.26
2022-09-07T07:09:08.387Z,19.23
2022-09-07T07:11:37.265Z,19.34
2022-09-07T07:14:04.175Z,19.41
2022-09-07T07:16:30.784Z,19.38
2022-09-07T07:18:58.045Z,19.31
2022-09-07T07:21:24.710Z,19.28
2022-09-07T07:23:53.087Z,19.22
2022-09-07T07:26:22.358Z,19.31
2022-09-07T07:29:06.589Z,19.33
2022-09-07T07:31:34.587Z,19.30
2022-09-07T07:34:03.700Z,19.40
2022-09-07T07:36:30.893Z,19.42
2022-09-07T07:44:17.533Z,19.38
2022-09-07T07:46:48.112Z,19.47
2022-09-07T07:49:14.680Z,19.37
2022-09-07T07:54:27.725Z,19.42
2022-09-07T07:56:54.177Z,19.43
2022-09-07T07:59:20.705Z,19.44
2022-09-07T08:01:47.324Z,19.44
2022-09-07T08:04:13.962Z,19.49
2022-09-07T08:06:42.594Z,19.56
2022-09-07T08:09:09.185Z,19.61
2022-09-07T08:11:35.688Z,19.66
2022-09-07T08:14:05.916Z,19.85
2022-09-07T08:16:33.107Z,19.94
2022-09-07T08:18:59.707Z,19.75
2022-09-07T08:21:26.312Z,19.84
2022-09-07T08:23:52.795Z,20.22
2022-09-07T08:26:19.281Z,20.36
2022-09-07T08:28:46.247Z,20.23
2022-09-07T08:31:15.412Z,20.44
2022-09-07T08:33:42.640Z,20.47
2022-09-07T08:36:12.985Z,20.51
2022-09-07T08:38:40.410Z,20.82
2022-09-07T08:41:40.607Z,21.04
2022-09-07T08:44:18.532Z,20.98
2022-09-07T08:46:55.734Z,21.54
2022-09-07T08:49:45.544Z,21.79
2022-09-07T08:52:21.153Z,22.07
2022-09-07T08:54:58.810Z,22.30
2022-09-07T08:57:30.859Z,22.50
2022-09-07T09:00:27.366Z,22.50
2022-09-07T09:05:52.727Z,23.02
2022-09-07T09:09:02.482Z,23.50
2022-09-07T09:11:50.640Z,23.81
2022-09-07T09:14:39.441Z,24.33
2022-09-07T09:17:44.524Z,24.70
2022-09-07T09:20:24.023Z,24.00
2022-09-07T09:23:18.950Z,24.16
2022-09-07T09:25:57.292Z,24.98
2022-09-07T09:28:26.452Z,25.61
2022-09-07T09:30:55.452Z,26.30
2022-09-07T09:33:25.910Z,26.82
2022-09-07T09:35:59.172Z,26.57
2022-09-07T09:38:39.485Z,25.97
2022-09-07T09:41:08.812Z,25.21
2022-09-07T09:43:40.830Z,25.22
2022-09-07T09:46:29.159Z,25.45
2022-09-07T09:49:04.943Z,25.38
2022-09-07T09:54:34.481Z,24.47
2022-09-07T09:57:00.987Z,24.58
2022-09-07T10:05:42.525Z,23.91
2022-09-07T10:08:28.934Z,23.73
2022-09-07T10:11:07.633Z,23.60
2022-09-07T10:13:44.072Z,23.68
2022-09-07T10:16:11.773Z,23.90
2022-09-07T10:18:40.627Z,24.11
2022-09-07T10:21:25.460Z,24.24
2022-09-07T10:23:57.207Z,24.34
2022-09-07T10:26:35.598Z,24.14
2022-09-07T10:29:08.492Z,23.88
2022-09-07T10:31:56.080Z,23.87
2022-09-07T10:34:41.419Z,24.02
2022-09-07T10:37:10.979Z,24.26
2022-09-07T10:40:26.053Z,24.80
2022-09-07T10:43:22.789Z,25.05
2022-09-07T10:46:07.690Z,25.34
2022-09-07T10:49:05.046Z,25.55
2022-09-07T10:51:38.860Z,25.81
2022-09-07T10:54:36.011Z,25.33
2022-09-07T10:57:32.580Z,25.36
2022-09-07T11:00:15.008Z,25.50
2022-09-07T11:06:10.880Z,25.06
2022-09-07T11:12:01.129Z,25.15
2022-09-07T11:14:31.485Z,25.31
2022-09-07T11:17:02.430Z,24.94
2022-09-07T11:19:35.442Z,24.51
2022-09-07T11:22:16.154Z,24.84
2022-09-07T11:25:35.837Z,25.26
2022-09-07T11:28:12.644Z,25.80
2022-09-07T11:30:50.565Z,26.16
2022-09-07T11:33:21.874Z,26.49
2022-09-07T11:36:09.833Z,26.76
2022-09-07T11:38:49.369Z,26.79
2022-09-07T11:41:27.922Z,27.03
2022-09-07T11:43:57.323Z,27.34
2022-09-07T11:46:23.776Z,27.35
2022-09-07T11:48:58.139Z,27.11
2022-09-07T11:51:41.747Z,27.04
2022-09-07T11:54:23.436Z,26.88
2022-09-07T11:56:58.079Z,26.69
2022-09-07T11:59:53.537Z,26.52
2022-09-07T12:02:58.854Z,26.48
2022-09-07T12:05:47.265Z,26.21
2022-09-07T12:08:24.720Z,25.57
2022-09-07T12:11:22.681Z,25.50
2022-09-07T12:14:07.755Z,25.44
2022-09-07T12:17:11.474Z,25.31
2022-09-07T12:19:38.029Z,25.15
2022-09-07T12:22:05.432Z,25.56
2022-09-07T12:24:42.651Z,25.92
2022-09-07T12:27:41.673Z,26.35
2022-09-07T12:30:30.102Z,26.79
2022-09-07T12:32:58.060Z,26.87
2022-09-07T12:35:33.627Z,26.69
2022-09-07T12:38:01.845Z,26.54
2022-09-07T12:40:28.645Z,26.62
2022-09-07T12:43:13.656Z,26.79
2022-09-07T12:45:50.009Z,26.96
2022-09-07T12:48:16.455Z,26.90
2022-09-07T12:51:06.436Z,26.92
2022-09-07T12:53:57.791Z,27.26
2022-09-07T13:00:16.151Z,27.54
2022-09-07T13:03:07.182Z,27.69
2022-09-07T13:06:00.932Z,27.29
2022-09-07T13:08:42.569Z,27.54
2022-09-07T13:11:21.223Z,27.67
2022-09-07T13:14:29.699Z,28.00
2022-09-07T13:17:38.851Z,27.11
2022-09-07T13:20:18.870Z,26.95
2022-09-07T13:22:45.626Z,27.16
2022-09-07T13:25:22.428Z,27.53
2022-09-07T13:28:01.534Z,27.81
2022-09-07T13:30:44.752Z,27.94
2022-09-07T13:33:29.892Z,28.05
2022-09-07T13:36:05.369Z,28.16
2022-09-07T13:38:34.959Z,28.41
2022-09-07T13:41:12.416Z,28.47
2022-09-07T13:43:40.018Z,28.74
2022-09-07T13:46:47.858Z,28.18
2022-09-07T13:49:25.544Z,28.32
2022-09-07T13:52:00.118Z,28.64
2022-09-07T13:54:45.099Z,28.65
2022-09-07T13:57:40.618Z,28.39
2022-09-07T14:00:14.217Z,27.90
2022-09-07T14:02:41.411Z,27.64
2022-09-07T14:05:10.440Z,27.88
2022-09-07T14:07:37.230Z,27.92
2022-09-07T14:10:09.799Z,28.10
2022-09-07T14:12:44.906Z,28.32
2022-09-07T14:15:27.352Z,28.52
2022-09-07T14:18:03.544Z,28.57
2022-09-07T14:20:32.385Z,28.62
2022-09-07T14:22:59.400Z,28.78
2022-09-07T14:25:26.230Z,28.83
2022-09-07T14:27:52.821Z,28.99
2022-09-07T14:30:19.193Z,29.07
2022-09-07T14:33:02.107Z,29.19
2022-09-07T14:35:33.501Z,29.20
2022-09-07T14:38:15.863Z,28.89
2022-09-07T14:40:42.825Z,29.09
2022-09-07T14:43:27.978Z,29.30
2022-09-07T14:45:54.522Z,29.21
2022-09-07T14:48:29.255Z,28.58
2022-09-07T14:51:29.658Z,28.29
2022-09-07T14:53:53.795Z,28.33
2022-09-07T14:56:23.705Z,28.30
2022-09-07T14:58:52.707Z,28.23
2022-09-07T15:01:38.122Z,28.21
2022-09-07T15:04:18.392Z,28.30
2022-09-07T15:07:02.291Z,28.31
2022-09-07T15:09:35.922Z,28.31
2022-09-07T15:12:38.146Z,28.37
2022-09-07T15:15:40.198Z,28.25
2022-09-07T15:18:44.643Z,28.13
2022-09-07T15:21:11.322Z,28.46
2022-09-07T15:23:37.791Z,28.71
2022-09-07T15:26:05.009Z,28.96
2022-09-07T15:34:17.538Z,29.32
2022-09-07T15:36:49.362Z,29.50
2022-09-07T15:39:21.646Z,29.45
2022-09-07T15:41:48.355Z,29.43
2022-09-07T15:44:16.148Z,29.45
2022-09-07T15:47:43.182Z,29.40
2022-09-07T15:49:30.751Z,29.48
2022-09-07T15:52:05.418Z,29.32
2022-09-07T15:54:35.099Z,29.29
2022-09-07T15:59:49.743Z,29.10
2022-09-07T16:05:04.673Z,28.99
2022-09-07T16:10:18.581Z,28.73
2022-09-07T16:13:01.875Z,28.67
2022-09-07T16:15:29.178Z,28.50
2022-09-07T16:17:55.874Z,28.40
2022-09-07T16:20:22.357Z,28.44
2022-09-07T16:25:36.284Z,28.42
2022-09-07T16:28:05.703Z,28.40
2022-09-07T16:30:32.274Z,28.31
2022-09-07T16:32:58.880Z,28.23
2022-09-07T16:35:25.542Z,28.14
2022-09-07T16:40:41.876Z,27.94
2022-09-07T16:43:09.798Z,27.82
2022-09-07T16:48:23.031Z,27.69
2022-09-07T16:51:01.578Z,27.44
2022-09-07T16:53:33.511Z,27.24
2022-09-07T16:56:11.529Z,27.28
2022-09-07T16:58:40.822Z,27.20
2022-09-07T17:01:09.687Z,27.18
2022-09-07T17:03:37.694Z,27.12
2022-09-07T17:06:06.637Z,27.21
2022-09-07T17:08:34.594Z,27.21
2022-09-07T17:11:02.854Z,27.24
2022-09-07T17:13:31.362Z,27.09
2022-09-07T17:16:12.689Z,27.11
2022-09-07T17:21:35.536Z,26.69
2022-09-07T17:24:04.191Z,26.65
2022-09-07T17:26:31.242Z,26.59
2022-09-07T17:29:01.693Z,26.47
2022-09-07T17:34:18.084Z,26.29
2022-09-07T17:36:44.579Z,26.25
2022-09-07T17:39:16.326Z,26.15
2022-09-07T17:41:44.018Z,26.03
2022-09-07T17:44:10.884Z,25.94
2022-09-07T17:46:37.397Z,25.84
2022-09-07T17:51:32.860Z,25.58
2022-09-07T17:54:09.207Z,25.43
2022-09-07T17:56:36.451Z,25.24
2022-09-07T18:01:49.464Z,24.81
2022-09-07T18:04:16.081Z,24.61
2022-09-07T18:06:42.567Z,24.41
2022-09-07T18:09:09.024Z,24.22
2022-09-07T18:11:51.273Z,24.07
2022-09-07T18:14:18.272Z,23.95
2022-09-07T18:16:47.740Z,23.91
2022-09-07T18:19:15.302Z,23.85
2022-09-07T18:21:43.616Z,23.78
2022-09-07T18:24:23.016Z,23.71
2022-09-07T18:26:53.065Z,23.65
2022-09-07T18:29:31.074Z,23.63
2022-09-07T18:31:59.002Z,23.59
2022-09-07T18:34:26.279Z,23.51
2022-09-07T18:36:52.753Z,23.32
2022-09-07T18:39:19.253Z,23.11
2022-09-07T18:41:45.786Z,22.94
2022-09-07T18:46:58.634Z,22.51
2022-09-07T18:49:25.227Z,22.34
2022-09-07T18:54:39.413Z,22.12
2022-09-07T18:57:06.965Z,22.09
2022-09-07T18:59:33.809Z,22.09
2022-09-07T19:02:04.347Z,22.07
2022-09-07T19:07:20.584Z,21.92
2022-09-07T19:09:48.243Z,21.89
2022-09-07T19:12:15.179Z,21.81
2022-09-07T19:14:42.271Z,21.66
2022-09-07T19:17:10.898Z,21.53
2022-09-07T19:19:38.667Z,21.38
2022-09-07T19:22:06.056Z,21.30
2022-09-07T19:24:33.185Z,21.23
2022-09-07T19:27:00.856Z,21.19
2022-09-07T19:29:28.124Z,21.08
2022-09-07T19:32:13.006Z,20.95
2022-09-07T19:34:41.712Z,20.76
2022-09-07T19:37:10.304Z,20.67
2022-09-07T19:39:37.044Z,20.67
2022-09-07T19:42:04.654Z,20.66
2022-09-07T19:44:31.257Z,20.63
2022-09-07T19:46:57.754Z,20.62
2022-09-07T19:49:24.322Z,20.55
2022-09-07T19:51:51.907Z,20.48
2022-09-07T19:54:18.793Z,20.46
2022-09-07T19:56:45.575Z,20.47
2022-09-07T19:59:12.478Z,20.46
2022-09-07T20:01:40.559Z,20.41
2022-09-07T20:04:14.813Z,20.32
2022-09-07T20:06:44.018Z,20.24
2022-09-07T20:09:10.530Z,20.22
2022-09-07T20:11:37.013Z,20.11
2022-09-07T20:14:03.823Z,20.02
2022-09-07T20:16:31.231Z,19.92
2022-09-07T20:18:59.187Z,19.88
2022-09-07T20:21:26.896Z,19.92
2022-09-07T20:23:53.697Z,19.89
2022-09-07T20:26:21.726Z,19.75
2022-09-07T20:29:05.844Z,19.66
2022-09-07T20:31:38.367Z,19.64
2022-09-07T20:34:08.630Z,19.67
2022-09-07T20:36:35.056Z,19.68
2022-09-07T20:39:04.525Z,19.68
2022-09-07T20:41:33.982Z,19.65
2022-09-07T20:44:02.397Z,19.62
2022-09-07T20:46:31.803Z,19.55
2022-09-07T20:48:58.962Z,19.50
2022-09-07T20:51:25.876Z,19.41
2022-09-07T20:53:52.462Z,19.33
2022-09-07T20:56:23.826Z,19.23
2022-09-07T20:58:57.953Z,19.22
2022-09-07T21:01:24.838Z,19.19
2022-09-07T21:03:54.005Z,19.16
2022-09-07T21:06:22.284Z,19.06
2022-09-07T21:08:50.506Z,18.97
2022-09-07T21:11:19.717Z,18.91
2022-09-07T21:13:46.744Z,18.88
2022-09-07T21:16:15.821Z,18.84
2022-09-07T21:18:46.534Z,18.78
2022-09-07T21:21:20.864Z,18.78
2022-09-07T21:23:47.943Z,18.78
2022-09-07T21:26:15.133Z,18.79
2022-09-07T21:28:41.722Z,18.78
2022-09-07T21:31:09.334Z,18.72
2022-09-07T21:33:37.291Z,18.68
2022-09-07T21:36:13.638Z,18.64
2022-09-07T21:38:40.838Z,18.62
2022-09-07T21:41:08.596Z,18.60
2022-09-07T21:43:35.737Z,18.60
2022-09-07T21:46:09.577Z,18.61
2022-09-07T21:48:36.208Z,18.57
2022-09-07T21:51:03.208Z,18.54
2022-09-07T21:53:29.694Z,18.55
2022-09-07T21:56:01.864Z,18.54
2022-09-07T21:58:29.057Z,18.47
2022-09-07T22:00:57.019Z,18.52
2022-09-07T22:03:25.261Z,18.59
2022-09-07T22:05:51.738Z,18.62
2022-09-07T22:08:19.288Z,18.68
2022-09-07T22:10:46.478Z,18.69
2022-09-07T22:13:13.401Z,18.72
2022-09-07T22:15:41.454Z,18.77
2022-09-07T22:18:11.743Z,18.77
2022-09-07T22:20:38.555Z,18.75
2022-09-07T22:23:07.889Z,18.75
2022-09-07T22:25:34.916Z,18.81
2022-09-07T22:28:01.521Z,18.87
2022-09-07T22:30:28.083Z,18.89
2022-09-07T22:32:54.546Z,18.91
2022-09-07T22:35:21.448Z,18.90
2022-09-07T22:37:47.960Z,18.89
2022-09-07T22:40:14.786Z,18.84
2022-09-07T22:42:41.812Z,18.80
2022-09-07T22:45:09.060Z,18.79
2022-09-07T22:47:35.538Z,18.81
2022-09-07T22:50:02.000Z,18.82
2022-09-07T22:52:28.483Z,18.84
2022-09-07T22:54:54.905Z,18.86
2022-09-07T22:57:21.312Z,18.83
2022-09-07T22:59:47.740Z,18.75
2022-09-07T23:02:14.184Z,18.67
2022-09-07T23:04:41.006Z,18.68
2022-09-07T23:07:07.722Z,18.76
2022-09-07T23:09:34.280Z,18.79
2022-09-07T23:12:00.717Z,18.83
2022-09-07T23:14:27.194Z,18.82
2022-09-07T23:16:53.654Z,18.86
2022-09-07T23:19:20.809Z,18.84
2022-09-07T23:21:48.075Z,18.87
2022-09-07T23:24:16.949Z,18.91
2022-09-07T23:26:43.968Z,18.90
2022-09-07T23:29:12.788Z,18.79
2022-09-07T23:31:40.299Z,18.85
2022-09-07T23:34:07.736Z,18.83
2022-09-07T23:36:34.487Z,18.82
2022-09-07T23:39:01.279Z,18.81
2022-09-07T23:41:28.471Z,18.79
2022-09-07T23:43:55.375Z,18.76
2022-09-07T23:46:22.745Z,18.81
2022-09-07T23:48:50.041Z,18.83
2022-09-07T23:51:21.273Z,18.88
2022-09-07T23:53:49.669Z,18.88
2022-09-07T23:56:16.228Z,18.86
2022-09-07T23:58:42.798Z,18.82
